Aérodrome :
LOGIN :

S'inscrire | Disclaimer

   EN    FR    IT 

 










Légende :    VFR   VFR Marginal   IFR   IFR Intensif   IFR Très Intensif
Visi : 
Plafond : 
>= 8 km
>= 3000ft
5 à 8 km
1000 à 3000 ft
1500m à 5 km
500 à 1000 ft
800 à 1500m
200 à 500 ft
< 800m
< 200 ft
Symboles :   Orages  Brouillard  Fortes neiges  Fortes précipitations  Vent > 20 kt
SIGMETs :   Divers  Orages  Givrage  Turbulence  Onde Orograph.  Cendres Volcan.






- Altitude de l'aérodrome : 124 ft
- Code IATA : NHT


EGWU - RAF Northolt

DERNIER METAR :
  • 031750Z 02013KT 9999 FEW024 BKN060 BKN090 15/09 Q1007 NOSIG RMK BLU BLU

METARs EXPIRÉS :
  • 031720Z 03014KT 9999 -RA FEW024 BKN080 16/09 Q1007 NOSIG RMK BLU BLU
  • 031650Z 02013KT 9999 -RA FEW024 BKN060 BKN080 16/10 Q1007 NOSIG
  • 031620Z 02012KT CAVOK 16/10 Q1007 NOSIG RMK BLU BLU
  • 031550Z 03009KT 9999 -RA BKN060 BKN080 16/11 Q1007 NOSIG RMK BLU BLU
  • 031520Z 03009KT 9999 -RA BKN060 BKN080 16/11 Q1007 NOSIG RMK BLU BLU

TAF TAF EGWU
Valide du 03 à 18h jusqu'au 04 à 12h UTC


031631Z 0318/0412 02012KT 9999 FEW025 BKN045
PROB30
TEMPO 0318/0323 7000 -RA
BECMG 0323/0402 SCT010 BKN040
TEMPO 0323/0405 7000 -RA
PROB30
TEMPO 0403/0405 4000 -RADZ
BECMG 0405/0408 SCT018
BECMG 0408/0410 SCT030



MET'MAP, la Météo Aéronautique d'un coup d'oeil ! - Copyright ORBIFLY Décembre 2007 - Disclaimer

ORBIFLY MET'MAP TEAM :

Programmation & Développement : Alexandra Zaïnal
Sur une idée originale de : Baudouin d'Aumeries
Assistance à la programmation : Marc-Olivier Méhu
Soutien technique & logistique : Manuel Goepfert

Contact : metmap@orbifly.com




SOURCES & CREDITS :

   NOAA